createdAt,value
2022-10-17T00:02:51.615Z,1.63
2022-10-17T00:05:54.909Z,1.42
2022-10-17T00:08:58.122Z,2.08
2022-10-17T00:12:02.663Z,1.42
2022-10-17T00:15:08.304Z,1.25
2022-10-17T00:18:12.647Z,1.75
2022-10-17T00:21:19.848Z,1.75
2022-10-17T00:24:23.921Z,1.70
2022-10-17T00:27:27.293Z,2.13
2022-10-17T00:30:30.375Z,1.75
2022-10-17T00:33:35.756Z,1.95
2022-10-17T00:36:38.616Z,2.20
2022-10-17T00:39:41.305Z,2.38
2022-10-17T00:42:44.393Z,1.92
2022-10-17T00:45:47.364Z,2.25
2022-10-17T00:48:53.643Z,2.10
2022-10-17T00:51:58.560Z,1.55
2022-10-17T00:55:07.361Z,1.92
2022-10-17T00:58:10.792Z,1.50
2022-10-17T01:01:13.625Z,1.80
2022-10-17T01:04:18.887Z,1.92
2022-10-17T01:07:22.070Z,2.00
2022-10-17T01:10:30.940Z,1.83
2022-10-17T01:13:40.811Z,1.80
2022-10-17T01:16:52.278Z,1.50
2022-10-17T01:20:37.035Z,1.70
2022-10-17T01:24:18.751Z,1.65
2022-10-17T01:27:35.667Z,1.50
2022-10-17T01:31:00.600Z,1.42
2022-10-17T01:34:12.407Z,1.90
2022-10-17T01:37:20.100Z,1.73
2022-10-17T01:40:31.660Z,1.60
2022-10-17T01:43:40.505Z,1.65
2022-10-17T01:46:50.708Z,1.40
2022-10-17T01:50:01.035Z,1.80
2022-10-17T01:53:10.072Z,1.60
2022-10-17T01:56:15.734Z,1.40
2022-10-17T01:59:22.678Z,1.80
2022-10-17T02:02:28.582Z,1.30
2022-10-17T02:05:37.731Z,1.60
2022-10-17T02:08:45.495Z,1.08
2022-10-17T02:12:12.975Z,1.83
2022-10-17T02:15:29.597Z,1.38
2022-10-17T02:18:48.586Z,1.73
2022-10-17T02:22:00.162Z,1.52
2022-10-17T02:25:11.297Z,1.40
2022-10-17T02:28:22.078Z,1.38
2022-10-17T02:31:30.203Z,1.88
2022-10-17T02:34:38.705Z,1.50
2022-10-17T02:37:43.351Z,1.33
2022-10-17T02:40:48.430Z,1.23
2022-10-17T02:43:55.640Z,1.25
2022-10-17T02:47:10.317Z,1.17
2022-10-17T02:50:15.186Z,1.20
2022-10-17T02:53:24.545Z,1.25
2022-10-17T02:56:30.382Z,1.55
2022-10-17T02:59:36.768Z,1.20
2022-10-17T03:02:42.362Z,1.33
2022-10-17T03:05:46.890Z,1.30
2022-10-17T03:08:49.799Z,1.30
2022-10-17T03:11:52.874Z,1.67
2022-10-17T03:14:55.738Z,1.33
2022-10-17T03:17:58.582Z,1.50
2022-10-17T03:21:02.858Z,1.40
2022-10-17T03:24:09.145Z,1.10
2022-10-17T03:27:12.490Z,1.27
2022-10-17T03:30:15.313Z,1.25
2022-10-17T03:33:18.241Z,1.20
2022-10-17T03:36:22.938Z,1.05
2022-10-17T03:39:26.052Z,1.05
2022-10-17T03:42:28.992Z,1.40
2022-10-17T03:45:31.722Z,1.50
2022-10-17T03:48:35.267Z,1.70
2022-10-17T03:51:42.903Z,1.33
2022-10-17T03:54:47.230Z,1.40
2022-10-17T03:57:50.111Z,1.13
2022-10-17T04:00:53.414Z,1.50
2022-10-17T04:03:57.698Z,1.38
2022-10-17T04:07:02.235Z,1.27
2022-10-17T04:10:05.315Z,1.30
2022-10-17T04:13:08.043Z,1.20
2022-10-17T04:16:13.888Z,1.48
2022-10-17T04:19:17.040Z,1.45
2022-10-17T04:22:21.513Z,1.65
2022-10-17T04:25:24.354Z,1.60
2022-10-17T04:28:28.019Z,1.50
2022-10-17T04:31:31.193Z,1.60
2022-10-17T04:34:34.062Z,1.63
2022-10-17T04:37:38.576Z,1.50
2022-10-17T04:40:42.599Z,1.77
2022-10-17T04:43:48.625Z,1.30
2022-10-17T04:46:54.010Z,1.10
2022-10-17T04:49:56.854Z,1.35
2022-10-17T04:53:01.174Z,1.60
2022-10-17T04:56:09.637Z,1.60
2022-10-17T04:59:12.510Z,1.50
2022-10-17T05:02:15.420Z,1.33
2022-10-17T05:05:18.284Z,1.42
2022-10-17T05:08:22.567Z,1.30
2022-10-17T05:11:27.647Z,1.40
2022-10-17T05:14:30.534Z,1.40
2022-10-17T05:17:33.223Z,1.60
2022-10-17T05:20:36.005Z,1.30
2022-10-17T05:23:40.215Z,1.55
2022-10-17T05:26:43.064Z,1.73
2022-10-17T05:29:46.178Z,1.50
2022-10-17T05:32:49.534Z,1.60
2022-10-17T05:35:52.426Z,1.50
2022-10-17T05:38:56.544Z,1.77
2022-10-17T05:41:59.371Z,1.58
2022-10-17T05:45:02.558Z,1.23
2022-10-17T05:48:06.252Z,1.75
2022-10-17T05:51:10.635Z,1.70
2022-10-17T05:54:15.015Z,1.70
2022-10-17T05:57:17.778Z,1.60
2022-10-17T06:00:21.518Z,2.35
2022-10-17T06:03:24.516Z,1.60
2022-10-17T06:06:27.390Z,1.88
2022-10-17T06:09:31.813Z,1.85
2022-10-17T06:12:34.678Z,1.85
2022-10-17T06:15:37.605Z,1.73
2022-10-17T06:18:40.545Z,1.95
2022-10-17T06:21:43.391Z,2.03
2022-10-17T06:24:47.481Z,2.00
2022-10-17T06:27:50.502Z,1.90
2022-10-17T06:30:53.437Z,1.85
2022-10-17T06:33:56.337Z,1.65
2022-10-17T06:36:59.573Z,1.80
2022-10-17T06:40:03.824Z,2.25
2022-10-17T06:43:07.483Z,2.05
2022-10-17T06:46:11.095Z,2.00
2022-10-17T06:49:14.067Z,1.95
2022-10-17T06:52:17.678Z,2.35
2022-10-17T06:55:23.269Z,2.30
2022-10-17T06:58:26.195Z,2.13
2022-10-17T07:01:29.940Z,2.03
2022-10-17T07:04:33.002Z,2.13
2022-10-17T07:07:38.853Z,2.20
2022-10-17T07:10:45.886Z,2.10
2022-10-17T07:13:49.234Z,2.00
2022-10-17T07:16:51.966Z,2.15
2022-10-17T07:19:54.693Z,2.08
2022-10-17T07:22:57.815Z,2.15
2022-10-17T07:26:03.651Z,2.03
2022-10-17T07:29:07.458Z,2.17
2022-10-17T07:32:10.290Z,2.10
2022-10-17T07:35:13.399Z,2.45
2022-10-17T07:38:16.200Z,2.55
2022-10-17T07:41:21.966Z,1.95
2022-10-17T07:44:29.102Z,2.35
2022-10-17T07:47:35.651Z,2.00
2022-10-17T07:50:38.591Z,2.20
2022-10-17T07:53:46.394Z,2.33
2022-10-17T07:56:53.276Z,2.35
2022-10-17T07:59:56.002Z,2.40
2022-10-17T08:02:58.762Z,1.92
2022-10-17T08:06:02.620Z,2.00
2022-10-17T08:09:05.686Z,2.05
2022-10-17T08:12:10.260Z,2.28
2022-10-17T08:15:13.054Z,2.45
2022-10-17T08:18:16.084Z,2.17
2022-10-17T08:21:18.855Z,2.28
2022-10-17T08:24:22.096Z,2.45
2022-10-17T08:27:27.968Z,3.00
2022-10-17T08:30:31.143Z,2.53
2022-10-17T08:33:34.269Z,2.20
2022-10-17T08:36:37.289Z,2.50
2022-10-17T08:39:40.276Z,1.80
2022-10-17T08:43:22.111Z,2.22
2022-10-17T08:46:32.546Z,2.00
2022-10-17T08:49:42.887Z,2.10
2022-10-17T08:52:50.443Z,1.90
2022-10-17T08:55:54.877Z,1.80
2022-10-17T08:58:59.784Z,1.65
2022-10-17T09:02:10.579Z,1.85
2022-10-17T09:05:41.073Z,1.50
2022-10-17T09:08:54.037Z,2.00
2022-10-17T09:12:12.572Z,1.90
2022-10-17T09:15:32.696Z,1.90
2022-10-17T09:18:38.662Z,1.90
2022-10-17T09:21:45.894Z,2.22
2022-10-17T09:24:53.449Z,1.50
2022-10-17T09:28:04.462Z,2.13
2022-10-17T09:31:14.569Z,1.80
2022-10-17T09:34:20.365Z,2.70
2022-10-17T09:37:32.086Z,2.03
2022-10-17T09:40:36.044Z,2.00
2022-10-17T09:43:40.587Z,1.85
2022-10-17T09:46:54.800Z,1.90
2022-10-17T09:49:57.852Z,1.52
2022-10-17T09:53:08.495Z,1.80
2022-10-17T09:56:16.104Z,1.90
2022-10-17T09:59:32.836Z,1.83
2022-10-17T10:02:40.777Z,1.30
2022-10-17T10:05:58.636Z,1.92
2022-10-17T10:09:03.534Z,1.52
2022-10-17T10:12:16.916Z,1.77
2022-10-17T10:15:39.019Z,1.50
2022-10-17T10:18:45.505Z,1.83
2022-10-17T10:21:57.208Z,1.50
2022-10-17T10:25:10.082Z,1.77
2022-10-17T10:28:12.984Z,1.80
2022-10-17T10:31:15.832Z,1.95
2022-10-17T10:34:24.016Z,1.58
2022-10-17T10:37:30.319Z,1.80
2022-10-17T10:40:38.876Z,1.95
2022-10-17T10:43:44.516Z,1.50
2022-10-17T10:46:47.360Z,1.45
2022-10-17T10:49:55.165Z,1.50
2022-10-17T10:53:13.064Z,1.45
2022-10-17T10:56:20.949Z,1.13
2022-10-17T10:59:28.620Z,1.20
2022-10-17T11:02:37.707Z,1.08
2022-10-17T11:05:45.130Z,1.48
2022-10-17T11:08:51.435Z,1.10
2022-10-17T11:12:01.332Z,1.40
2022-10-17T11:15:15.541Z,1.10
2022-10-17T11:18:24.718Z,1.00
2022-10-17T11:21:38.598Z,0.80
2022-10-17T11:24:45.840Z,0.85
2022-10-17T11:27:48.787Z,1.05
2022-10-17T11:30:56.787Z,1.30
2022-10-17T11:34:02.538Z,1.13
2022-10-17T11:37:15.903Z,0.93
2022-10-17T11:40:31.148Z,1.00
2022-10-17T11:43:39.863Z,1.10
2022-10-17T11:46:46.576Z,1.27
2022-10-17T11:49:54.240Z,0.70
2022-10-17T11:53:04.300Z,1.33
2022-10-17T11:56:11.221Z,0.90
2022-10-17T11:59:40.956Z,0.75
2022-10-17T12:02:51.756Z,1.10
2022-10-17T12:06:00.893Z,0.88
2022-10-17T12:09:11.714Z,0.93
2022-10-17T12:12:27.040Z,0.82
2022-10-17T12:15:32.154Z,1.10
2022-10-17T12:18:34.920Z,1.10
2022-10-17T12:21:56.551Z,1.20
2022-10-17T12:25:02.892Z,0.80
2022-10-17T12:28:18.178Z,0.90
2022-10-17T12:31:29.676Z,0.95
2022-10-17T12:34:35.623Z,0.93
2022-10-17T12:38:11.875Z,0.88
2022-10-17T12:41:16.558Z,1.15
2022-10-17T12:44:37.904Z,0.70
2022-10-17T12:47:40.723Z,0.75
2022-10-17T12:51:30.675Z,1.00
2022-10-17T12:54:27.548Z,1.00
2022-10-17T12:57:38.711Z,1.00
2022-10-17T13:01:05.281Z,1.30
2022-10-17T13:04:12.575Z,1.38
2022-10-17T13:07:20.686Z,1.27
2022-10-17T13:13:42.481Z,1.17
2022-10-17T13:16:53.165Z,1.50
2022-10-17T13:19:57.256Z,1.23
2022-10-17T13:23:01.083Z,1.35
2022-10-17T13:26:13.784Z,1.55
2022-10-17T13:29:19.281Z,1.42
2022-10-17T13:32:21.970Z,1.20
2022-10-17T13:35:55.403Z,1.10
2022-10-17T13:38:52.892Z,1.73
2022-10-17T13:41:57.932Z,1.42
2022-10-17T13:45:03.448Z,1.27
2022-10-17T13:48:17.192Z,1.20
2022-10-17T13:51:20.195Z,1.17
2022-10-17T13:54:42.849Z,1.27
2022-10-17T13:57:45.643Z,1.00
2022-10-17T14:00:50.781Z,1.20
2022-10-17T14:04:07.803Z,1.10
2022-10-17T14:07:29.373Z,1.35
2022-10-17T14:10:36.850Z,1.15
2022-10-17T14:13:40.247Z,1.17
2022-10-17T14:16:45.797Z,1.20
2022-10-17T14:20:14.125Z,1.10
2022-10-17T14:23:38.539Z,1.23
2022-10-17T14:26:49.830Z,1.10
2022-10-17T14:29:55.097Z,1.10
2022-10-17T14:33:03.416Z,1.33
2022-10-17T14:36:06.513Z,1.20
2022-10-17T14:39:20.091Z,1.00
2022-10-17T14:42:24.335Z,1.27
2022-10-17T14:45:30.475Z,1.10
2022-10-17T14:48:34.840Z,1.15
2022-10-17T14:51:50.320Z,1.10
2022-10-17T14:55:01.911Z,1.00
2022-10-17T14:58:18.208Z,1.13
2022-10-17T15:01:21.094Z,1.30
2022-10-17T15:04:25.435Z,1.05
2022-10-17T15:07:29.382Z,2.50
2022-10-17T15:10:35.195Z,1.77
2022-10-17T15:13:43.280Z,1.90
2022-10-17T15:16:48.389Z,2.13
2022-10-17T15:19:52.532Z,3.35
2022-10-17T15:22:55.587Z,2.60
2022-10-17T15:25:58.469Z,3.35
2022-10-17T15:29:01.778Z,5.28
2022-10-17T15:32:04.483Z,5.13
2022-10-17T15:35:10.204Z,4.68
2022-10-17T15:38:16.922Z,5.38
2022-10-17T15:41:20.523Z,3.50
2022-10-17T15:44:23.573Z,2.25
2022-10-17T15:47:31.314Z,1.70
2022-10-17T15:50:36.007Z,2.10
2022-10-17T15:53:38.986Z,1.60
2022-10-17T15:56:43.244Z,1.60
2022-10-17T15:59:47.828Z,1.60
2022-10-17T16:02:51.774Z,1.17
2022-10-17T16:05:56.146Z,1.40
2022-10-17T16:08:59.740Z,1.27
2022-10-17T16:12:02.948Z,1.33
2022-10-17T16:15:07.248Z,1.73
2022-10-17T16:18:10.391Z,1.40
2022-10-17T16:21:16.684Z,1.25
2022-10-17T16:24:19.540Z,1.33
2022-10-17T16:27:22.472Z,1.23
2022-10-17T16:30:26.920Z,1.58
2022-10-17T16:33:31.347Z,1.42
2022-10-17T16:36:36.238Z,1.50
2022-10-17T16:39:39.091Z,1.45
2022-10-17T16:42:41.963Z,2.40
2022-10-17T16:45:44.770Z,1.98
2022-10-17T16:48:49.021Z,1.45
2022-10-17T16:51:53.588Z,1.88
2022-10-17T16:54:56.392Z,1.75
2022-10-17T16:58:00.117Z,1.35
2022-10-17T17:01:03.861Z,1.75
2022-10-17T17:04:06.766Z,1.67
2022-10-17T17:07:12.039Z,1.35
2022-10-17T17:10:15.295Z,1.80
2022-10-17T17:13:19.339Z,1.67
2022-10-17T17:16:24.547Z,1.70
2022-10-17T17:19:27.506Z,2.05
2022-10-17T17:22:31.623Z,1.52
2022-10-17T17:25:35.682Z,1.55
2022-10-17T17:28:39.679Z,1.80
2022-10-17T17:31:42.498Z,1.70
2022-10-17T17:34:45.388Z,1.83
2022-10-17T17:37:49.453Z,1.63
2022-10-17T17:40:52.641Z,1.80
2022-10-17T17:43:55.886Z,1.70
2022-10-17T17:46:59.262Z,1.75
2022-10-17T17:50:03.341Z,1.80
2022-10-17T17:53:08.518Z,1.80
2022-10-17T17:56:14.104Z,1.65
2022-10-17T17:59:17.436Z,1.50
2022-10-17T18:02:20.348Z,1.88
2022-10-17T18:05:23.478Z,1.80
2022-10-17T18:08:27.712Z,1.70
2022-10-17T18:11:31.074Z,2.08
2022-10-17T18:14:33.794Z,1.70
2022-10-17T18:17:37.800Z,1.80
2022-10-17T18:20:42.202Z,1.73
2022-10-17T18:23:48.472Z,1.85
2022-10-17T18:26:54.022Z,1.85
2022-10-17T18:30:00.170Z,2.05
2022-10-17T18:33:03.166Z,1.73
2022-10-17T18:36:08.085Z,1.45
2022-10-17T18:39:12.666Z,1.70
2022-10-17T18:42:15.631Z,2.03
2022-10-17T18:45:18.539Z,1.98
2022-10-17T18:48:21.705Z,1.70
2022-10-17T18:51:26.602Z,1.65
2022-10-17T18:54:33.347Z,2.03
2022-10-17T18:57:36.258Z,1.92
2022-10-17T19:00:39.058Z,2.00
2022-10-17T19:03:42.605Z,1.80
2022-10-17T19:06:45.711Z,1.77
2022-10-17T19:09:50.655Z,1.77
2022-10-17T19:12:53.988Z,1.52
2022-10-17T19:15:56.912Z,1.95
2022-10-17T19:19:02.368Z,1.88
2022-10-17T19:22:05.640Z,1.65
2022-10-17T19:25:10.768Z,1.80
2022-10-17T19:28:13.627Z,1.52
2022-10-17T19:31:18.009Z,1.60
2022-10-17T19:34:21.813Z,1.67
2022-10-17T19:37:25.338Z,1.60
2022-10-17T19:40:29.770Z,1.83
2022-10-17T19:43:33.001Z,1.73
2022-10-17T19:46:36.105Z,1.70
2022-10-17T19:49:39.580Z,1.70
2022-10-17T19:52:42.552Z,1.73
2022-10-17T19:55:47.294Z,1.70
2022-10-17T19:58:51.143Z,1.73
2022-10-17T20:01:53.909Z,2.00
2022-10-17T20:05:13.839Z,1.60
2022-10-17T20:11:36.064Z,1.63
2022-10-17T20:14:41.171Z,2.13
2022-10-17T20:17:44.033Z,2.45
2022-10-17T20:20:46.948Z,2.45
2022-10-17T20:23:50.823Z,2.30
2022-10-17T20:26:55.117Z,2.25
2022-10-17T20:30:01.746Z,2.22
2022-10-17T20:33:04.594Z,2.88
2022-10-17T20:36:08.707Z,2.50
2022-10-17T20:39:12.558Z,2.90
2022-10-17T20:42:16.946Z,2.60
2022-10-17T20:45:32.009Z,2.38
2022-10-17T20:48:42.964Z,2.65
2022-10-17T20:51:46.358Z,2.60
2022-10-17T20:54:49.141Z,2.55
2022-10-17T20:57:55.112Z,2.60
2022-10-17T21:00:58.068Z,2.72
2022-10-17T21:04:21.239Z,2.00
2022-10-17T21:07:25.291Z,1.98
2022-10-17T21:10:35.257Z,2.47
2022-10-17T21:13:43.935Z,2.30
2022-10-17T21:16:46.897Z,2.28
2022-10-17T21:19:49.859Z,2.33
2022-10-17T21:22:52.613Z,2.33
2022-10-17T21:25:55.379Z,2.30
2022-10-17T21:29:03.013Z,2.40
2022-10-17T21:32:14.645Z,2.58
2022-10-17T21:35:28.143Z,2.40
2022-10-17T21:38:31.093Z,2.63
2022-10-17T21:41:34.399Z,3.33
2022-10-17T21:44:38.678Z,2.72
2022-10-17T21:47:41.788Z,3.00
2022-10-17T21:50:48.532Z,2.97
2022-10-17T21:53:52.225Z,2.55
2022-10-17T21:56:55.082Z,2.80
2022-10-17T21:59:59.241Z,2.45
2022-10-17T22:03:05.869Z,2.63
2022-10-17T22:06:37.692Z,2.72
2022-10-17T22:09:32.527Z,3.25
2022-10-17T22:12:35.320Z,2.50
2022-10-17T22:15:39.393Z,2.70
2022-10-17T22:18:43.241Z,2.67
2022-10-17T22:21:46.336Z,2.75
2022-10-17T22:24:49.102Z,2.22
2022-10-17T22:27:51.979Z,2.67
2022-10-17T22:30:56.274Z,2.53
2022-10-17T22:33:59.111Z,2.40
2022-10-17T22:37:01.904Z,2.33
2022-10-17T22:40:05.578Z,2.03
2022-10-17T22:43:08.882Z,2.33
2022-10-17T22:46:15.854Z,2.17
2022-10-17T22:49:19.039Z,2.60
2022-10-17T22:52:21.887Z,2.40
2022-10-17T22:55:24.985Z,2.42
2022-10-17T22:58:28.534Z,2.42
2022-10-17T23:01:32.806Z,2.60
2022-10-17T23:04:35.978Z,2.42
2022-10-17T23:07:38.668Z,2.70
2022-10-17T23:10:41.996Z,2.58
2022-10-17T23:26:53.337Z,2.45
2022-10-17T23:29:56.171Z,2.63
2022-10-17T23:32:59.030Z,2.40
2022-10-17T23:36:05.211Z,2.35
2022-10-17T23:39:08.605Z,2.00
2022-10-17T23:42:12.806Z,2.45
2022-10-17T23:45:16.055Z,2.72
2022-10-17T23:48:18.746Z,3.20
2022-10-17T23:51:22.445Z,2.50
2022-10-17T23:54:25.531Z,2.60
2022-10-17T23:57:30.420Z,3.50
